Time;durP1;ratioP1;P1;durP2;ratioP2;P2;SDS_P1;SDS_P2;PMS_P1;PMS_P2;Temp;Humidity;BMP_temperature;BMP_pressure;BME280_temperature;BME280_humidity;BME280_pressure;Samples;Min_cycle;Max_cycle;Signal;HPM_P1;HPM_P2
2024/04/09 00:00:15;;;;;;;1.98;0.90;;;;;;;10.89;47.12;95071.94;5488479;26;20452;-69
2024/04/09 00:02:41;;;;;;;1.75;1.00;;;;;;;10.99;47.18;95086.78;5486539;26;20010;-70
2024/04/09 00:05:08;;;;;;;1.73;0.80;;;;;;;10.78;47.52;95071.13;5486544;26;20070;-70
2024/04/09 00:07:35;;;;;;;1.55;0.90;;;;;;;10.70;47.82;95072.56;5456363;26;19994;-70
2024/04/09 00:10:06;;;;;;;1.83;0.90;;;;;;;10.78;48.14;95081.50;5456402;26;19990;-70
2024/04/09 00:12:32;;;;;;;1.70;1.00;;;;;;;10.57;48.70;95078.84;5485939;26;20001;-70
2024/04/09 00:14:59;;;;;;;2.05;1.05;;;;;;;10.50;48.51;95065.50;5494487;26;20009;-70
2024/04/09 00:17:25;;;;;;;2.38;1.30;;;;;;;10.39;48.97;95063.78;5486242;26;20421;-70
2024/04/09 00:19:50;;;;;;;1.88;1.00;;;;;;;10.27;49.47;95060.34;5455631;26;19990;-70
2024/04/09 00:22:16;;;;;;;3.97;1.10;;;;;;;10.25;49.72;95071.75;5487648;26;20026;-70
2024/04/09 00:24:42;;;;;;;2.08;1.13;;;;;;;10.31;49.53;95070.47;5483079;26;19994;-70
2024/04/09 00:27:08;;;;;;;2.50;1.20;;;;;;;10.35;49.33;95061.53;5455424;26;19998;-70
2024/04/09 00:29:36;;;;;;;2.25;1.20;;;;;;;10.32;49.42;95069.56;5455659;26;19995;-69
2024/04/09 00:32:01;;;;;;;4.18;1.27;;;;;;;10.15;50.34;95066.47;5485357;26;20603;-70
2024/04/09 00:34:27;;;;;;;1.85;1.15;;;;;;;10.09;50.16;95063.53;5456871;26;19994;-70
2024/04/09 00:36:53;;;;;;;2.58;1.30;;;;;;;10.00;50.58;95062.44;5459171;26;19998;-70
2024/04/09 00:39:27;;;;;;;4.05;1.80;;;;;;;10.10;50.53;95067.75;5489393;26;19994;-70
2024/04/09 00:41:53;;;;;;;3.25;1.30;;;;;;;9.92;50.24;95051.81;5489415;26;19994;-70
2024/04/09 00:44:21;;;;;;;4.05;1.45;;;;;;;9.97;50.51;95047.09;5459039;26;20005;-71
2024/04/09 00:46:47;;;;;;;2.35;1.35;;;;;;;9.89;51.00;95057.22;5459131;26;20354;-70
2024/04/09 00:49:13;;;;;;;2.25;1.25;;;;;;;9.86;51.18;95060.88;5458951;26;20018;-70
2024/04/09 00:51:40;;;;;;;2.55;1.00;;;;;;;10.00;51.39;95055.50;5458159;26;20013;-70
2024/04/09 00:54:05;;;;;;;2.20;0.98;;;;;;;10.05;50.19;95075.88;5429286;26;20066;-70
2024/04/09 00:56:31;;;;;;;2.35;1.33;;;;;;;10.05;50.16;95060.31;5489030;26;20026;-70
2024/04/09 00:58:56;;;;;;;2.10;1.17;;;;;;;10.08;50.49;95067.84;5459219;26;19994;-70
2024/04/09 01:01:22;;;;;;;1.67;1.10;;;;;;;9.87;50.45;95061.72;5458503;26;19990;-70
2024/04/09 01:03:48;;;;;;;2.72;1.20;;;;;;;9.85;50.38;95067.03;5489351;26;20463;-70
2024/04/09 01:06:13;;;;;;;2.72;1.15;;;;;;;9.62;50.77;95048.03;5491057;26;20070;-70
2024/04/09 01:08:39;;;;;;;2.13;1.00;;;;;;;9.77;50.60;95053.81;5456910;26;20460;-70
2024/04/09 01:11:04;;;;;;;2.45;1.00;;;;;;;9.70;50.72;95056.06;5488779;26;20022;-70
2024/04/09 01:13:30;;;;;;;2.25;1.25;;;;;;;9.70;50.82;95056.06;5488943;26;20533;-70
2024/04/09 01:15:55;;;;;;;4.43;1.25;;;;;;;9.77;50.45;95056.41;5519531;26;20005;-70
2024/04/09 01:18:21;;;;;;;2.00;1.20;;;;;;;9.76;50.51;95053.00;5458653;26;20335;-70
2024/04/09 01:20:47;;;;;;;2.40;1.10;;;;;;;9.78;50.54;95056.31;5457813;26;20004;-70
2024/04/09 01:23:12;;;;;;;2.25;1.13;;;;;;;9.71;50.95;95056.88;5490732;26;20004;-70
2024/04/09 01:25:38;;;;;;;1.75;1.00;;;;;;;9.62;51.21;95048.84;5490742;26;20025;-70
2024/04/09 01:28:04;;;;;;;2.17;1.15;;;;;;;9.77;50.94;95064.19;5458318;26;20034;-70
2024/04/09 01:30:29;;;;;;;3.25;1.30;;;;;;;9.45;51.18;95031.13;5506455;26;19993;-70
2024/04/09 01:32:55;;;;;;;2.22;1.40;;;;;;;9.60;51.55;95066.28;5525295;26;20058;-70
2024/04/09 01:35:20;;;;;;;2.92;1.40;;;;;;;9.36;52.05;95048.22;5527121;26;20021;-70
2024/04/09 01:37:46;;;;;;;2.15;1.35;;;;;;;9.23;52.42;95052.63;5494822;26;20419;-70
2024/04/09 01:40:12;;;;;;;2.42;1.42;;;;;;;9.06;53.08;95064.25;5495103;26;19996;-70
2024/04/09 01:42:37;;;;;;;2.97;1.40;;;;;;;9.00;53.39;95056.91;5525604;26;20025;-70
2024/04/09 01:45:03;;;;;;;2.92;1.65;;;;;;;9.02;53.37;95044.66;5524781;26;20507;-70
2024/04/09 01:47:29;;;;;;;2.33;1.40;;;;;;;9.04;53.29;95047.16;5525019;26;19993;-69
2024/04/09 01:49:54;;;;;;;2.35;1.25;;;;;;;8.95;53.66;95049.47;5527150;26;19989;-69
2024/04/09 01:52:20;;;;;;;2.50;1.50;;;;;;;8.95;53.60;95046.88;5494231;26;19993;-70
2024/04/09 01:54:46;;;;;;;2.63;1.45;;;;;;;8.92;53.35;95048.88;5494958;26;20006;-69
2024/04/09 01:57:11;;;;;;;2.75;1.38;;;;;;;8.95;53.78;95052.06;5525358;26;20043;-69
2024/04/09 01:59:38;;;;;;;2.25;1.40;;;;;;;8.77;54.07;95048.19;5525172;26;20056;-69
2024/04/09 02:02:04;;;;;;;3.10;1.42;;;;;;;8.72;54.32;95047.72;5494903;26;19993;-70
2024/04/09 02:04:30;;;;;;;4.82;1.50;;;;;;;8.72;54.32;95048.53;5525180;26;19999;-70
2024/04/09 02:06:55;;;;;;;2.50;1.50;;;;;;;8.67;54.61;95047.22;5494092;26;20105;-70
2024/04/09 02:09:22;;;;;;;2.90;1.60;;;;;;;8.46;54.60;95006.38;5524951;26;20061;-69
2024/04/09 02:11:48;;;;;;;3.72;1.52;;;;;;;8.63;54.71;95045.78;5524622;26;20446;-70
2024/04/09 02:14:14;;;;;;;2.85;1.70;;;;;;;8.62;54.97;95044.94;5516005;26;19994;-70
2024/04/09 02:16:40;;;;;;;3.55;1.52;;;;;;;8.43;55.67;95047.19;5475804;26;19994;-70
2024/04/09 02:19:06;;;;;;;2.47;1.45;;;;;;;8.46;55.65;95047.78;5489799;26;20009;-70
2024/04/09 02:21:32;;;;;;;2.55;1.40;;;;;;;8.20;56.28;95041.03;5464582;26;20008;-69
2024/04/09 02:23:57;;;;;;;2.42;1.50;;;;;;;8.23;56.34;95038.22;5514244;26;19997;-70
2024/04/09 02:26:26;;;;;;;4.00;1.65;;;;;;;8.17;56.51;95052.41;5526824;25;19993;-70
2024/04/09 02:28:51;;;;;;;2.60;1.70;;;;;;;8.05;57.09;95054.09;5524781;26;20001;-69
2024/04/09 02:31:18;;;;;;;4.75;1.38;;;;;;;8.06;56.88;95047.97;5518431;26;19998;-69
2024/04/09 02:33:43;;;;;;;4.50;1.48;;;;;;;8.03;57.02;95050.78;5481220;26;20444;-69
2024/04/09 02:36:09;;;;;;;3.13;1.52;;;;;;;7.97;56.96;95043.44;5493611;26;20064;-70
2024/04/09 02:38:35;;;;;;;2.28;1.30;;;;;;;7.88;57.20;95038.88;5524323;26;20042;-69
2024/04/09 02:41:05;;;;;;;3.17;1.60;;;;;;;7.82;57.43;95041.88;5518596;26;19998;-69
2024/04/09 02:43:30;;;;;;;3.15;1.30;;;;;;;7.80;57.80;95048.91;5457368;26;20001;-69
2024/04/09 02:45:56;;;;;;;2.47;1.50;;;;;;;7.90;57.37;95043.97;5489287;26;19994;-70
2024/04/09 02:48:21;;;;;;;4.13;1.50;;;;;;;7.69;57.56;95041.91;5487433;26;20437;-70
2024/04/09 02:51:00;;;;;;;2.20;1.25;;;;;;;7.62;57.90;95043.25;5487600;26;19995;-69
2024/04/09 02:53:26;;;;;;;2.65;1.58;;;;;;;7.57;58.02;95048.72;5457530;26;19990;-69
2024/04/09 02:56:04;;;;;;;2.72;1.35;;;;;;;7.59;58.00;95053.81;5457252;26;20622;-70
2024/04/09 02:58:30;;;;;;;8.63;1.63;;;;;;;7.47;58.40;95047.69;5488489;26;19994;-69
2024/04/09 03:00:56;;;;;;;3.15;1.55;;;;;;;7.41;58.34;95037.78;5456978;26;20005;-70
2024/04/09 03:03:21;;;;;;;4.05;1.60;;;;;;;7.45;58.58;95053.91;5457085;26;19990;-71
2024/04/09 03:05:47;;;;;;;2.53;1.48;;;;;;;7.41;58.92;95050.69;5489070;26;20024;-70
2024/04/09 03:08:12;;;;;;;2.70;1.30;;;;;;;7.45;58.60;95049.56;5489290;26;20023;-70
2024/04/09 03:10:37;;;;;;;2.90;1.50;;;;;;;6.71;58.28;94952.81;5456795;26;20424;-70
2024/04/09 03:13:03;;;;;;;2.83;1.60;;;;;;;7.25;58.95;95044.88;5456610;26;20528;-70
2024/04/09 03:15:31;;;;;;;3.28;1.35;;;;;;;7.21;58.94;95044.25;5487184;26;20022;-71
2024/04/09 03:17:57;;;;;;;4.72;1.45;;;;;;;6.99;59.45;95041.41;5456486;26;20002;-71
2024/04/09 03:20:23;;;;;;;3.92;1.40;;;;;;;7.29;59.03;95074.75;5456902;26;20005;-72
2024/04/09 03:22:48;;;;;;;4.63;1.45;;;;;;;7.12;59.57;95056.00;5489000;26;20006;-71
2024/04/09 03:25:13;;;;;;;3.55;1.60;;;;;;;7.01;59.70;95066.22;5487052;26;20062;-70
2024/04/09 03:27:39;;;;;;;2.42;1.23;;;;;;;6.97;59.76;95051.03;5456177;26;19994;-70
2024/04/09 03:30:05;;;;;;;3.42;1.30;;;;;;;6.91;59.86;95070.34;5517527;26;19994;-71
2024/04/09 03:32:31;;;;;;;2.13;1.40;;;;;;;6.93;59.87;95056.38;5486809;26;20066;-70
2024/04/09 03:34:56;;;;;;;2.85;1.52;;;;;;;6.97;60.07;95072.53;5456917;26;20001;-71
2024/04/09 03:37:21;;;;;;;2.38;1.50;;;;;;;7.00;59.84;95069.72;5458233;26;20069;-71
2024/04/09 03:39:47;;;;;;;4.05;1.60;;;;;;;7.00;60.00;95069.72;5487036;26;19994;-70
2024/04/09 03:42:12;;;;;;;3.38;1.30;;;;;;;7.01;59.87;95061.03;5486879;26;19998;-71
2024/04/09 03:44:38;;;;;;;2.83;1.55;;;;;;;6.81;60.44;95062.34;5488470;26;20018;-70
2024/04/09 03:47:04;;;;;;;2.65;1.65;;;;;;;6.92;60.33;95069.41;5479606;26;19998;-70
2024/04/09 03:49:36;;;;;;;2.38;1.38;;;;;;;6.79;60.66;95060.78;5489439;26;20029;-70
2024/04/09 03:52:01;;;;;;;2.30;1.50;;;;;;;6.77;60.75;95065.19;5523459;26;20019;-70
2024/04/09 03:54:27;;;;;;;2.05;1.40;;;;;;;6.74;60.97;95060.22;5483461;25;19998;-71
2024/04/09 03:56:53;;;;;;;3.03;1.40;;;;;;;6.71;61.12;95069.00;5496119;25;20067;-70
2024/04/09 03:59:18;;;;;;;2.25;1.30;;;;;;;6.69;61.46;95076.03;5510877;25;20002;-70
2024/04/09 04:01:44;;;;;;;2.50;1.40;;;;;;;6.56;61.71;95070.81;5450007;26;20448;-71
2024/04/09 04:04:09;;;;;;;2.58;1.38;;;;;;;6.82;61.43;95068.31;5465953;26;20439;-71
2024/04/09 04:06:38;;;;;;;3.03;1.40;;;;;;;6.63;61.50;95073.81;5499331;25;20073;-70
2024/04/09 04:09:04;;;;;;;2.95;1.40;;;;;;;6.55;61.80;95084.66;5477247;26;20022;-70
2024/04/09 04:11:31;;;;;;;2.13;1.33;;;;;;;6.48;61.97;95067.88;5492370;25;20091;-71
2024/04/09 04:13:56;;;;;;;2.05;1.30;;;;;;;6.53;62.22;95086.50;5514924;25;20333;-70
2024/04/09 04:16:22;;;;;;;2.30;1.40;;;;;;;6.51;61.75;95072.84;5512995;25;20070;-71
2024/04/09 04:18:48;;;;;;;2.40;1.40;;;;;;;6.62;61.33;95085.09;5517317;25;20069;-71
2024/04/09 04:21:21;;;;;;;1.80;1.20;;;;;;;6.65;61.46;95096.03;5476015;26;20034;-71
2024/04/09 04:23:47;;;;;;;2.08;1.30;;;;;;;6.65;61.46;95101.19;5507689;25;20002;-71
2024/04/09 04:26:17;;;;;;;2.45;1.23;;;;;;;6.40;61.44;95062.38;5461425;26;20009;-70
2024/04/09 04:28:43;;;;;;;2.00;1.40;;;;;;;6.57;61.19;95081.97;5520390;25;19997;-70
2024/04/09 04:31:10;;;;;;;2.22;1.42;;;;;;;6.51;61.28;95066.84;5457631;26;20099;-70
2024/04/09 04:33:36;;;;;;;3.13;1.33;;;;;;;6.64;61.08;95084.06;5479065;25;20344;-71
2024/04/09 04:36:02;;;;;;;2.80;1.40;;;;;;;6.63;61.05;95091.88;5515906;25;20013;-71
2024/04/09 04:38:27;;;;;;;2.00;1.30;;;;;;;6.81;60.94;95095.09;5496624;25;20033;-71
2024/04/09 04:40:53;;;;;;;2.55;1.40;;;;;;;6.80;60.50;95090.81;5521505;25;20009;-70
2024/04/09 04:43:18;;;;;;;2.15;1.25;;;;;;;6.85;60.48;95096.53;5506949;26;19998;-71
2024/04/09 04:45:44;;;;;;;2.95;1.48;;;;;;;7.10;59.54;95101.81;5524343;25;20015;-71
2024/04/09 04:48:10;;;;;;;2.33;1.38;;;;;;;7.52;58.75;95096.50;5507332;25;20016;-70
2024/04/09 04:50:35;;;;;;;4.32;1.58;;;;;;;8.05;56.78;95099.81;5478157;25;20013;-71
2024/04/09 04:53:01;;;;;;;4.10;1.38;;;;;;;8.77;54.44;95102.59;5518317;25;19994;-69
2024/04/09 04:55:27;;;;;;;2.85;1.20;;;;;;;9.21;52.82;95087.38;5489462;25;20075;-69
2024/04/09 04:57:53;;;;;;;2.40;1.30;;;;;;;9.70;51.40;95107.13;5506932;25;20004;-70
2024/04/09 05:00:18;;;;;;;3.05;1.55;;;;;;;10.34;50.06;95102.25;5486141;26;20010;-68
2024/04/09 05:02:44;;;;;;;1.90;1.30;;;;;;;11.14;47.52;95099.41;5504773;25;20498;-68
2024/04/09 05:05:10;;;;;;;2.42;1.35;;;;;;;11.91;45.78;95094.91;5487785;26;20044;-69
2024/04/09 05:07:36;;;;;;;1.90;1.30;;;;;;;12.58;43.82;95103.97;5489177;25;20009;-70
2024/04/09 05:10:03;;;;;;;2.88;1.50;;;;;;;12.99;42.39;95076.09;5514575;25;20084;-69
2024/04/09 05:12:28;;;;;;;2.72;1.10;;;;;;;13.60;41.66;95100.16;5500111;26;19994;-68
2024/04/09 05:14:54;;;;;;;2.45;1.27;;;;;;;14.83;39.39;95090.63;5517294;25;20484;-68
2024/04/09 05:17:19;;;;;;;1.83;1.15;;;;;;;15.09;37.83;95096.78;5493142;26;20364;-67
2024/04/09 05:19:45;;;;;;;1.83;1.30;;;;;;;15.11;37.63;95105.31;5519953;25;20012;-69
2024/04/09 05:22:11;;;;;;;2.58;1.38;;;;;;;14.53;38.79;95080.28;5501042;26;20047;-69
2024/04/09 05:24:39;;;;;;;2.72;1.30;;;;;;;13.73;40.04;95089.44;5512062;25;20330;-70
2024/04/09 05:27:07;;;;;;;2.65;1.40;;;;;;;13.24;41.63;95091.22;5481302;26;20033;-70
2024/04/09 05:29:33;;;;;;;2.15;1.30;;;;;;;12.59;42.84;95088.22;5454692;26;19998;-70
2024/04/09 05:31:58;;;;;;;2.03;1.23;;;;;;;12.11;44.36;95104.47;5483838;26;20012;-70
2024/04/09 05:34:24;;;;;;;5.50;1.40;;;;;;;12.00;44.60;95094.13;5508114;26;20010;-69
2024/04/09 05:36:49;;;;;;;3.13;1.33;;;;;;;11.14;46.64;95096.78;5526448;25;20478;-70
2024/04/09 05:39:16;;;;;;;2.22;1.30;;;;;;;11.24;46.58;95089.06;5538457;25;20017;-69
2024/04/09 05:41:41;;;;;;;2.08;1.45;;;;;;;11.10;47.52;95097.97;5503046;25;20504;-70
2024/04/09 05:44:08;;;;;;;2.90;1.20;;;;;;;10.82;48.07;95088.13;5513263;25;19998;-69
2024/04/09 05:46:35;;;;;;;2.33;1.30;;;;;;;10.80;48.39;95075.25;5487294;25;20006;-69
2024/04/09 05:49:00;;;;;;;3.45;1.40;;;;;;;10.95;48.36;95084.44;5557469;25;19992;-69
2024/04/09 05:51:26;;;;;;;2.53;1.40;;;;;;;10.97;47.62;95084.31;5487252;26;20405;-69
2024/04/09 05:53:51;;;;;;;2.20;1.33;;;;;;;11.13;48.43;95089.09;5490364;26;20008;-69
2024/04/09 05:56:17;;;;;;;3.72;1.95;;;;;;;11.23;48.39;95081.38;5486815;26;20037;-70
2024/04/09 05:58:42;;;;;;;3.03;1.50;;;;;;;11.43;48.06;95092.78;5499835;25;20004;-70
2024/04/09 06:01:08;;;;;;;4.70;2.10;;;;;;;11.79;47.95;95086.31;5472339;26;20360;-70
2024/04/09 06:03:33;;;;;;;4.70;2.30;;;;;;;11.80;48.99;95080.16;5516598;26;20009;-70
2024/04/09 06:05:59;;;;;;;7.93;2.67;;;;;;;11.58;50.44;95076.72;5510332;25;19997;-70
2024/04/09 06:08:25;;;;;;;4.68;2.40;;;;;;;11.79;49.62;95088.91;5499157;25;20014;-70
2024/04/09 06:10:50;;;;;;;8.52;2.50;;;;;;;12.00;49.69;95088.91;5524604;25;20002;-69
2024/04/09 06:13:15;;;;;;;13.25;2.78;;;;;;;12.02;49.37;95085.22;5508510;26;20430;-70
2024/04/09 06:15:41;;;;;;;11.05;3.30;;;;;;;11.89;49.54;95084.59;5509759;26;20009;-69
2024/04/09 06:18:07;;;;;;;6.88;2.33;;;;;;;12.50;48.49;95086.38;5514614;26;20066;-69
2024/04/09 06:20:32;;;;;;;9.25;2.00;;;;;;;12.86;47.68;95091.97;5484098;26;20009;-70
2024/04/09 06:22:58;;;;;;;17.10;2.80;;;;;;;13.10;47.22;95084.63;5491547;26;19997;-70
2024/04/09 06:25:23;;;;;;;4.07;2.30;;;;;;;13.27;46.89;95072.72;5513611;26;20016;-69
2024/04/09 06:27:49;;;;;;;6.43;2.40;;;;;;;13.31;46.77;95094.13;5490428;26;20035;-69
2024/04/09 06:30:15;;;;;;;5.60;2.40;;;;;;;13.56;45.99;95085.72;5489968;26;20026;-69
2024/04/09 06:32:41;;;;;;;6.80;2.70;;;;;;;13.65;46.58;95091.94;5521103;26;20000;-70
2024/04/09 06:35:07;;;;;;;6.97;2.67;;;;;;;13.67;45.64;95082.16;5514369;26;19990;-69
2024/04/09 06:37:34;;;;;;;6.55;2.20;;;;;;;13.17;46.68;95096.13;5489480;25;20335;-70
2024/04/09 06:39:59;;;;;;;7.40;2.60;;;;;;;12.86;47.53;95082.38;5505824;26;19997;-69
2024/04/09 06:42:25;;;;;;;8.18;2.53;;;;;;;12.93;47.18;95096.53;5499491;26;19994;-69
2024/04/09 06:44:50;;;;;;;4.90;2.25;;;;;;;13.14;46.67;95096.41;5488453;26;20395;-70
2024/04/09 06:47:16;;;;;;;6.70;2.90;;;;;;;12.99;46.62;95070.88;5518063;26;20002;-69
2024/04/09 06:49:43;;;;;;;4.40;2.40;;;;;;;12.90;46.01;95082.94;5502324;26;19994;-69
2024/04/09 06:52:08;;;;;;;4.95;2.17;;;;;;;13.04;46.20;95092.13;5491968;26;20029;-69
2024/04/09 06:54:34;;;;;;;4.88;2.15;;;;;;;13.62;44.95;95084.34;5512310;26;20043;-69
2024/04/09 06:56:59;;;;;;;5.72;2.35;;;;;;;13.80;45.17;95081.88;5517088;26;19998;-69
2024/04/09 06:59:25;;;;;;;6.72;2.40;;;;;;;13.75;45.18;95071.03;5483994;26;20428;-68
2024/04/09 07:01:51;;;;;;;5.65;2.28;;;;;;;13.91;44.20;95070.44;5454817;26;20440;-68
2024/04/09 07:04:17;;;;;;;4.97;2.30;;;;;;;13.98;44.22;95067.09;5487674;26;19986;-68
2024/04/09 07:06:42;;;;;;;5.18;2.10;;;;;;;13.83;43.43;95082.41;5485392;26;20460;-68
2024/04/09 07:09:08;;;;;;;6.25;2.13;;;;;;;14.03;43.40;95075.34;5487002;26;19998;-69
2024/04/09 07:11:33;;;;;;;5.30;2.10;;;;;;;14.38;42.98;95078.28;5487302;26;19990;-68
2024/04/09 07:13:59;;;;;;;8.65;2.47;;;;;;;14.36;42.81;95073.19;5487062;26;19997;-69
2024/04/09 07:16:24;;;;;;;7.68;2.33;;;;;;;14.16;43.01;95066.41;5487076;26;19991;-68
2024/04/09 07:18:50;;;;;;;8.10;2.30;;;;;;;14.42;42.58;95077.81;5456587;26;19990;-69
2024/04/09 07:21:17;;;;;;;5.53;2.10;;;;;;;15.05;42.16;95071.88;5487257;26;20479;-68
2024/04/09 07:23:42;;;;;;;4.65;2.28;;;;;;;15.15;41.00;95067.38;5487282;26;19994;-68
2024/04/09 07:26:07;;;;;;;4.47;1.90;;;;;;;15.53;40.37;95070.69;5487018;26;19990;-68
2024/04/09 07:28:33;;;;;;;4.28;2.00;;;;;;;15.73;40.58;95073.16;5487290;26;19986;-68
2024/04/09 07:31:03;;;;;;;3.33;2.20;;;;;;;15.93;40.21;95085.09;5486815;26;20455;-68
2024/04/09 07:33:29;;;;;;;4.78;2.03;;;;;;;15.63;39.82;95074.06;5487537;26;19991;-68
2024/04/09 07:35:58;;;;;;;3.88;2.00;;;;;;;15.19;40.54;95070.56;5487052;26;20014;-69
2024/04/09 07:38:23;;;;;;;4.40;2.17;;;;;;;15.13;40.69;95071.16;5456911;26;20058;-68
2024/04/09 07:40:49;;;;;;;10.45;2.70;;;;;;;15.49;40.47;95060.66;5487153;26;20360;-69
2024/04/09 07:43:14;;;;;;;6.07;2.38;;;;;;;15.88;39.31;95049.84;5486450;26;20023;-68
2024/04/09 07:45:39;;;;;;;5.60;2.33;;;;;;;16.01;38.76;95066.81;5486887;26;19997;-68
2024/04/09 07:48:05;;;;;;;4.55;2.00;;;;;;;16.03;38.93;95064.88;5488636;26;20001;-68
2024/04/09 07:50:31;;;;;;;5.15;1.80;;;;;;;16.39;39.24;95064.75;5456279;26;20386;-68
2024/04/09 07:52:57;;;;;;;4.47;1.90;;;;;;;16.54;37.43;95036.13;5488005;26;20005;-68
2024/04/09 07:55:22;;;;;;;5.22;2.00;;;;;;;16.03;38.16;95054.38;5488198;26;20340;-68
2024/04/09 07:57:48;;;;;;;4.60;1.80;;;;;;;16.53;37.41;95051.03;5486660;26;20049;-68
2024/04/09 08:00:17;;;;;;;5.38;2.10;;;;;;;16.23;38.34;95054.16;5486926;26;20333;-68
2024/04/09 08:02:46;;;;;;;5.85;2.47;;;;;;;15.91;39.03;95049.53;5486230;26;19994;-68
2024/04/09 08:05:12;;;;;;;5.68;2.42;;;;;;;15.88;38.79;95048.06;5456540;26;19990;-70
2024/04/09 08:07:39;;;;;;;7.40;2.60;;;;;;;15.90;38.60;95038.25;5425998;26;20351;-68
2024/04/09 08:10:11;;;;;;;5.10;2.40;;;;;;;16.07;38.37;95029.53;5456556;26;20441;-69
2024/04/09 08:12:41;;;;;;;7.63;2.33;;;;;;;16.54;37.40;95023.00;5487646;26;19998;-68
2024/04/09 08:15:08;;;;;;;6.23;2.23;;;;;;;16.54;36.44;95023.81;5486449;26;20114;-69
2024/04/09 08:17:35;;;;;;;3.10;1.92;;;;;;;17.11;34.99;95028.44;5456248;26;20282;-68
2024/04/09 08:20:02;;;;;;;5.30;2.45;;;;;;;16.97;36.85;95027.25;5426192;26;20000;-68
2024/04/09 08:22:27;;;;;;;5.93;2.50;;;;;;;17.41;36.36;95020.91;5487668;26;20006;-68
2024/04/09 08:24:53;;;;;;;5.13;1.65;;;;;;;17.61;34.32;95008.28;5486496;26;20094;-68
2024/04/09 08:27:18;;;;;;;6.45;2.25;;;;;;;17.29;35.91;95020.41;5485854;26;20137;-69
2024/04/09 08:29:43;;;;;;;6.38;2.45;;;;;;;17.07;36.98;95027.09;5485591;26;19998;-69
2024/04/09 08:32:10;;;;;;;9.70;2.80;;;;;;;17.16;36.99;95022.69;5486028;26;20066;-68
2024/04/09 08:34:35;;;;;;;16.58;2.63;;;;;;;17.13;36.96;95023.00;5486351;26;20001;-69
2024/04/09 08:37:01;;;;;;;5.03;2.00;;;;;;;17.22;35.19;95002.84;5486251;26;20030;-69
2024/04/09 08:39:26;;;;;;;11.73;2.25;;;;;;;17.40;35.46;95006.97;5485976;26;20565;-69
2024/04/09 08:41:51;;;;;;;6.78;3.58;;;;;;;17.47;35.16;95015.00;5486072;26;20005;-69
2024/04/09 08:44:17;;;;;;;4.55;2.00;;;;;;;17.12;35.30;95008.25;5487909;26;20019;-69
2024/04/09 08:46:42;;;;;;;5.03;2.28;;;;;;;17.22;35.30;95008.94;5485454;26;19994;-69
2024/04/09 08:49:08;;;;;;;4.85;1.83;;;;;;;17.59;34.35;95002.38;5455071;26;20373;-69
2024/04/09 08:51:34;;;;;;;2.65;1.33;;;;;;;17.93;34.18;95004.81;5485834;26;19990;-69
2024/04/09 08:53:59;;;;;;;4.55;1.40;;;;;;;17.93;33.18;94994.28;5485856;26;20062;-69
2024/04/09 08:56:25;;;;;;;7.03;1.90;;;;;;;17.89;34.77;94994.81;5490280;26;19990;-69
2024/04/09 08:58:51;;;;;;;6.50;1.58;;;;;;;17.84;34.51;94996.13;5488930;26;20416;-69
2024/04/09 09:01:31;;;;;;;6.68;1.70;;;;;;;17.75;35.10;94996.28;5489405;26;20018;-69
2024/04/09 09:03:57;;;;;;;3.92;1.58;;;;;;;18.33;34.08;94986.44;5459226;26;20005;-69
2024/04/09 09:06:23;;;;;;;7.32;2.22;;;;;;;18.32;34.87;94980.38;5428972;26;20022;-69
2024/04/09 09:08:50;;;;;;;6.70;1.42;;;;;;;18.49;33.64;94981.13;5489457;26;19990;-69
2024/04/09 09:11:21;;;;;;;4.28;1.20;;;;;;;18.35;32.68;94984.47;5490883;26;20323;-69
2024/04/09 09:13:47;;;;;;;2.75;1.17;;;;;;;18.34;32.60;94978.41;5489305;26;19994;-69
2024/04/09 09:16:12;;;;;;;9.77;1.52;;;;;;;18.83;32.42;94972.91;5491013;26;20043;-69
2024/04/09 09:18:38;;;;;;;3.63;1.30;;;;;;;18.39;33.21;94964.75;5488929;26;19998;-69
2024/04/09 09:21:04;;;;;;;3.95;1.20;;;;;;;18.69;33.22;94957.81;5489268;26;20001;-69
2024/04/09 09:23:29;;;;;;;6.72;1.30;;;;;;;19.33;32.14;94963.66;5428530;26;19990;-69
2024/04/09 09:25:55;;;;;;;7.20;1.30;;;;;;;19.05;32.77;94950.22;5489174;26;19990;-69
2024/04/09 09:28:22;;;;;;;8.68;1.50;;;;;;;18.92;33.17;94955.28;5490387;26;19994;-69
2024/04/09 09:30:47;;;;;;;3.55;1.20;;;;;;;19.13;32.96;94957.25;5488939;26;20022;-69
2024/04/09 09:33:26;;;;;;;4.80;1.10;;;;;;;19.37;32.72;94943.06;5488949;26;19997;-68
2024/04/09 09:35:51;;;;;;;2.10;1.02;;;;;;;19.47;31.44;94954.16;5489933;26;20002;-68
2024/04/09 09:38:17;;;;;;;4.00;2.08;;;;;;;19.16;32.67;94962.97;5488942;26;19990;-68
2024/04/09 09:40:48;;;;;;;4.43;1.30;;;;;;;19.10;32.84;94940.00;5428591;26;20063;-68
2024/04/09 09:43:14;;;;;;;;;;;;;;;19.39;31.72;94949.00;5429740;26;19998;-68
2024/04/09 09:45:40;;;;;;;4.50;1.35;;;;;;;19.35;32.41;94932.72;5488852;26;20366;-68
2024/04/09 09:48:06;;;;;;;2.72;1.33;;;;;;;19.42;32.28;94938.09;5488614;26;19990;-69
2024/04/09 09:50:32;;;;;;;2.90;1.10;;;;;;;19.36;32.41;94934.38;5488350;26;19990;-68
2024/04/09 09:52:57;;;;;;;2.45;1.10;;;;;;;19.17;30.64;94927.78;5428152;26;20084;-69
2024/04/09 09:55:23;;;;;;;3.65;1.27;;;;;;;19.32;31.29;94935.69;5488651;26;19990;-68
2024/04/09 09:57:49;;;;;;;1.98;0.82;;;;;;;19.76;29.08;94931.53;5488586;26;20001;-68
2024/04/09 10:00:15;;;;;;;3.65;0.98;;;;;;;20.01;30.93;94914.47;5488376;26;20526;-68
2024/04/09 10:02:42;;;;;;;1.90;1.13;;;;;;;20.17;30.31;94924.00;5488362;26;20000;-68
2024/04/09 10:05:08;;;;;;;2.15;1.00;;;;;;;20.01;30.11;94913.66;5488422;26;20132;-69
2024/04/09 10:07:34;;;;;;;3.00;1.10;;;;;;;19.93;30.39;94905.81;5487941;26;20443;-68
2024/04/09 10:09:59;;;;;;;4.38;1.17;;;;;;;20.06;31.31;94901.56;5488612;26;20432;-68
2024/04/09 10:12:34;;;;;;;3.42;0.90;;;;;;;19.94;29.74;94905.63;5488063;26;19990;-68
2024/04/09 10:15:05;;;;;;;3.60;1.00;;;;;;;20.05;29.87;94904.34;5488502;26;20450;-68
2024/04/09 10:17:50;;;;;;;2.95;1.27;;;;;;;20.42;30.92;94900.78;5489626;26;20009;-68
2024/04/09 10:20:23;;;;;;;3.90;0.90;;;;;;;20.46;30.31;94891.47;5489662;26;20019;-69
2024/04/09 10:22:49;;;;;;;3.65;1.02;;;;;;;20.49;29.82;94898.19;5459465;26;20006;-68
2024/04/09 10:25:18;;;;;;;1.95;1.10;;;;;;;20.39;29.05;94895.84;5487730;26;19994;-68
2024/04/09 10:27:43;;;;;;;3.03;1.00;;;;;;;20.68;27.88;94887.06;5487768;26;19998;-68
2024/04/09 10:30:16;;;;;;;2.53;0.80;;;;;;;20.33;25.11;94872.03;5457424;26;20014;-69
2024/04/09 10:32:53;;;;;;;3.80;1.08;;;;;;;20.51;25.42;94875.91;5488253;26;20022;-68
2024/04/09 10:35:21;;;;;;;12.98;1.00;;;;;;;20.38;25.70;94873.09;5488278;26;20393;-68
2024/04/09 10:37:53;;;;;;;2.55;0.90;;;;;;;20.86;25.88;94873.41;5488347;26;20001;-68
2024/04/09 10:40:19;;;;;;;1.65;0.80;;;;;;;20.90;25.59;94868.59;5488466;26;20455;-68
2024/04/09 10:42:45;;;;;;;2.72;0.93;;;;;;;20.98;26.48;94874.56;5487961;26;19998;-68
2024/04/09 10:45:11;;;;;;;4.65;0.98;;;;;;;21.03;27.34;94866.06;5488117;26;20436;-68
2024/04/09 10:47:37;;;;;;;2.53;1.00;;;;;;;20.88;27.35;94867.97;5457425;26;19994;-68
2024/04/09 10:50:03;;;;;;;2.30;0.85;;;;;;;21.14;27.34;94862.91;5427332;26;19990;-68
2024/04/09 10:52:29;;;;;;;3.33;1.00;;;;;;;21.11;27.19;94855.34;5457004;26;20013;-68
2024/04/09 10:54:55;;;;;;;2.63;1.00;;;;;;;21.00;26.70;94855.06;5427173;26;20062;-69
2024/04/09 10:57:20;;;;;;;1.98;0.90;;;;;;;21.21;26.54;94857.69;5456816;26;20013;-69
2024/04/09 10:59:46;;;;;;;1.50;0.80;;;;;;;21.13;26.89;94844.63;5487420;26;20073;-68
2024/04/09 11:02:13;;;;;;;2.22;0.60;;;;;;;21.12;19.63;94853.56;5489309;26;19994;-69
2024/04/09 11:04:39;;;;;;;1.35;0.70;;;;;;;21.07;18.97;94838.28;5487482;26;19994;-68
2024/04/09 11:07:05;;;;;;;1.08;0.60;;;;;;;21.62;18.18;94849.88;5457303;26;20021;-68
2024/04/09 11:09:31;;;;;;;1.85;0.70;;;;;;;21.75;18.81;94845.66;5457279;26;19990;-68
2024/04/09 11:11:56;;;;;;;1.42;0.70;;;;;;;21.70;19.66;94843.59;5487282;26;19994;-70
2024/04/09 11:14:23;;;;;;;1.88;0.50;;;;;;;21.61;18.77;94837.66;5487400;26;20448;-68
2024/04/09 11:16:48;;;;;;;1.83;0.50;;;;;;;21.53;16.52;94839.63;5456766;26;20018;-69
2024/04/09 11:19:21;;;;;;;1.77;0.50;;;;;;;21.56;17.83;94826.88;5486434;26;19994;-68
2024/04/09 11:21:46;;;;;;;3.25;0.70;;;;;;;21.54;19.22;94836.81;5457186;26;20002;-69
2024/04/09 11:24:12;;;;;;;1.65;0.70;;;;;;;21.55;18.55;94827.88;5487486;26;20000;-68
2024/04/09 11:26:40;;;;;;;2.25;0.70;;;;;;;21.79;20.70;94821.28;5486996;26;20001;-68
2024/04/09 11:29:05;;;;;;;1.70;0.60;;;;;;;21.85;20.55;94819.69;5486965;26;20036;-68
2024/04/09 11:31:32;;;;;;;0.98;0.60;;;;;;;21.77;18.62;94814.56;5486724;26;20015;-69